South Daytona, FL

5:48 PM EDT on August 31, 2016 (GMT -0400)
Daytona Beach International | | Change Station

Elev 33 ft 29.18 °N, 81.06 °W | Updated 11 minutes ago

Light Rain
Light Rain
80 °F
Feels Like 86 °F
N
12
Wind Variable Wind from SW

Today
High -- | Low -- °F
--% Chance of Precip.
Yesterday
High -- | Low -- °F
Precip. -- in
Pressure 29.89 in
Visibility 1.0 miles
Clouds Scattered Clouds 1700 ft
Scattered Clouds 3100 ft
Mostly Cloudy 7500 ft
Overcast 15000 ft
Heat Index 86 °F
Dew Point 77 °F
Humidity 90%
Rainfall 0.04 in
Snow Depth Not available.
7:01 AM 7:46 PM
Waning Crescent, 0% visible
SPECI KDAB 312137Z 23010KT 1SM -RA SCT017CB SCT031 BKN075 OVC150 27/25 A2989 RMK AO2 LTG DSNT E AND S RAB26 CB OHD-S-W MOV NW P0003 T02670250 RVRNO $
Pressure 29.89 in
Visibility 1.0 miles
Clouds Scattered Clouds 1700 ft
Scattered Clouds 3100 ft
Mostly Cloudy 7500 ft
Overcast 15000 ft
Heat Index 86 °F
Dew Point 77 °F
Humidity 90%
Rainfall 0.04 in
Snow Depth Not available.
7:01 AM 7:46 PM
Waning Crescent, 0% visible
SPECI KDAB 312137Z 23010KT 1SM -RA SCT017CB SCT031 BKN075 OVC150 27/25 A2989 RMK AO2 LTG DSNT E AND S RAB26 CB OHD-S-W MOV NW P0003 T02670250 RVRNO $

10-Day Weather Forecast

Almanac

Astronomy

Aug. 31, 2016 Rise Set
Actual Time
Civil Twilight
Nautical Twilight
Astronomical Twilight
Moon
Length of Visible Light
Length of Day
Tomorrow will be .
, % of the Moon is Illuminated

Today's Extremes

State Highs State Lows

Community

WunderPhotos

Upload Photos

1,936,189 photos uploaded!

WunderBlog® & News

Nearby

Air Quality

  Air Quality AQ Index Pollutant
Not available.

Snow Depth

Station Depth Elevation

Earthquake Activity

City Distance Mag. Time & Date
Minimum magnitude displayed is 2.5.

Coastal Water Temperatures

Place Temperature

Stations

Nearby Weather Stations

Station Location Temp. Windchill Dew Point Humidity Wind Precip. Elev Updated Type
                   

Watches & Warnings

There are currently no watches in effect.